Time;durP1;ratioP1;P1;durP2;ratioP2;P2;SDS_P1;SDS_P2;PMS_P1;PMS_P2;Temp;Humidity;BMP_temperature;BMP_pressure;BME280_temperature;BME280_humidity;BME280_pressure;Samples;Min_cycle;Max_cycle;Signal;HPM_P1;HPM_P2
2021/09/02 00:00:17;;;;;;;31.58;23.98;;;;;;;;;;5073752;28;20052;-64
2021/09/02 00:02:43;;;;;;;34.42;24.63;;;;;;;;;;5073947;28;20545;-64
2021/09/02 00:05:09;;;;;;;33.33;25.02;;;;;;;;;;5074614;28;20020;-64
2021/09/02 00:07:35;;;;;;;33.30;24.80;;;;;;;;;;5073394;28;20469;-64
2021/09/02 00:10:01;;;;;;;36.35;24.20;;;;;;;;;;5073168;28;20064;-64
2021/09/02 00:12:27;;;;;;;33.10;24.80;;;;;;;;;;5067293;28;20028;-64
2021/09/02 00:14:53;;;;;;;31.92;24.55;;;;;;;;;;5053439;28;20412;-63
2021/09/02 00:17:19;;;;;;;33.20;24.17;;;;;;;;;;5053707;28;20035;-64
2021/09/02 00:19:45;;;;;;;29.85;23.05;;;;;;;;;;5052990;28;20494;-64
2021/09/02 00:22:11;;;;;;;30.45;23.42;;;;;;;;;;5054387;28;20025;-65
2021/09/02 00:24:37;;;;;;;32.03;23.90;;;;;;;;;;5052991;28;20480;-64
2021/09/02 00:27:03;;;;;;;33.20;24.13;;;;;;;;;;5054230;28;20112;-64
2021/09/02 00:29:30;;;;;;;37.13;25.13;;;;;;;;;;5052981;28;20033;-63
2021/09/02 00:31:56;;;;;;;31.25;23.50;;;;;;;;;;5054274;28;20025;-64
2021/09/02 00:34:22;;;;;;;36.17;24.30;;;;;;;;;;5052717;28;20017;-63
2021/09/02 00:36:48;;;;;;;33.15;24.52;;;;;;;;;;5053862;28;20029;-64
2021/09/02 00:39:14;;;;;;;34.55;25.00;;;;;;;;;;5052881;28;20021;-64
2021/09/02 00:41:40;;;;;;;31.92;25.08;;;;;;;;;;5053293;28;20017;-64
2021/09/02 00:44:06;;;;;;;31.50;24.25;;;;;;;;;;5054630;28;20075;-64
2021/09/02 00:46:32;;;;;;;34.10;23.58;;;;;;;;;;5053284;28;20032;-64
2021/09/02 00:48:58;;;;;;;34.92;23.75;;;;;;;;;;5054003;28;20464;-63
2021/09/02 00:51:24;;;;;;;33.90;24.15;;;;;;;;;;5053933;28;20021;-65
2021/09/02 00:53:52;;;;;;;29.65;23.63;;;;;;;;;;5053811;28;20454;-63
2021/09/02 00:56:18;;;;;;;30.38;22.38;;;;;;;;;;5052555;28;20033;-64
2021/09/02 00:58:45;;;;;;;30.55;22.67;;;;;;;;;;5053582;28;20401;-65
2021/09/02 01:01:12;;;;;;;38.05;23.95;;;;;;;;;;5054557;28;20036;-63
2021/09/02 01:03:38;;;;;;;32.60;23.98;;;;;;;;;;5053470;28;20021;-64
2021/09/02 01:06:04;;;;;;;32.65;23.25;;;;;;;;;;5052762;28;20037;-64
2021/09/02 01:08:30;;;;;;;31.58;23.25;;;;;;;;;;5052457;28;20029;-64
2021/09/02 01:10:56;;;;;;;37.15;24.73;;;;;;;;;;5052433;28;20032;-64
2021/09/02 01:13:23;;;;;;;31.52;23.35;;;;;;;;;;5064136;28;20044;-64
2021/09/02 01:15:49;;;;;;;36.10;24.85;;;;;;;;;;5058033;28;20024;-64
2021/09/02 01:18:16;;;;;;;30.17;22.92;;;;;;;;;;5052126;28;20028;-64
2021/09/02 01:20:42;;;;;;;32.33;22.10;;;;;;;;;;5051954;28;20021;-64
2021/09/02 01:23:09;;;;;;;32.80;24.05;;;;;;;;;;5054418;28;20032;-64
2021/09/02 01:25:36;;;;;;;29.92;23.30;;;;;;;;;;5053125;28;20028;-64
2021/09/02 01:28:04;;;;;;;33.17;22.73;;;;;;;;;;5053425;28;20108;-64
2021/09/02 01:30:31;;;;;;;34.67;24.35;;;;;;;;;;5051963;28;20087;-64
2021/09/02 01:32:57;;;;;;;32.25;23.50;;;;;;;;;;5053038;28;20027;-64
2021/09/02 01:35:24;;;;;;;37.42;25.25;;;;;;;;;;5051434;28;20029;-65
2021/09/02 01:37:51;;;;;;;31.92;24.60;;;;;;;;;;5054233;28;20396;-64
2021/09/02 01:40:17;;;;;;;34.10;23.83;;;;;;;;;;5051988;28;20458;-64
2021/09/02 01:42:44;;;;;;;31.50;24.08;;;;;;;;;;5051773;28;20028;-64
2021/09/02 01:45:10;;;;;;;31.25;23.27;;;;;;;;;;5052722;28;20029;-71
2021/09/02 01:47:36;;;;;;;33.50;24.02;;;;;;;;;;5051812;28;20075;-64
2021/09/02 01:50:08;;;;;;;34.28;22.98;;;;;;;;;;5052840;28;20033;-65
2021/09/02 01:52:34;;;;;;;32.90;23.77;;;;;;;;;;5052977;28;20025;-64
2021/09/02 01:55:00;;;;;;;32.70;23.23;;;;;;;;;;5052501;28;20492;-64
2021/09/02 01:57:26;;;;;;;36.22;23.67;;;;;;;;;;5053699;28;20029;-65
2021/09/02 01:59:52;;;;;;;34.25;23.23;;;;;;;;;;5052492;28;20036;-64
2021/09/02 02:02:18;;;;;;;32.53;23.30;;;;;;;;;;5051198;28;20468;-65
2021/09/02 02:04:44;;;;;;;35.85;23.85;;;;;;;;;;5052257;28;20028;-65
2021/09/02 02:07:10;;;;;;;29.75;22.35;;;;;;;;;;5051423;28;20021;-64
2021/09/02 02:09:36;;;;;;;33.60;22.48;;;;;;;;;;5052553;28;20051;-66
2021/09/02 02:12:02;;;;;;;29.83;22.48;;;;;;;;;;5050798;28;20385;-64
2021/09/02 02:14:28;;;;;;;31.48;22.88;;;;;;;;;;5052119;28;20025;-64
2021/09/02 02:16:54;;;;;;;29.38;22.55;;;;;;;;;;5051438;28;20035;-63
2021/09/02 02:19:20;;;;;;;34.53;22.00;;;;;;;;;;5052495;28;20025;-64
2021/09/02 02:21:46;;;;;;;33.55;22.95;;;;;;;;;;5051109;28;20071;-64
2021/09/02 02:24:12;;;;;;;36.08;24.45;;;;;;;;;;5050947;28;20021;-65
2021/09/02 02:26:38;;;;;;;31.48;23.48;;;;;;;;;;5051176;28;20029;-64
2021/09/02 02:29:04;;;;;;;31.38;23.63;;;;;;;;;;5052253;28;20025;-64
2021/09/02 02:31:30;;;;;;;32.90;23.02;;;;;;;;;;5051641;28;20044;-65
2021/09/02 02:33:56;;;;;;;31.20;22.92;;;;;;;;;;5052003;28;20086;-64
2021/09/02 02:36:22;;;;;;;32.80;23.30;;;;;;;;;;5051941;28;20029;-64
2021/09/02 02:38:48;;;;;;;31.27;22.50;;;;;;;;;;5050743;28;20027;-65
2021/09/02 02:41:14;;;;;;;32.03;23.15;;;;;;;;;;5052094;28;20021;-64
2021/09/02 02:43:40;;;;;;;34.33;24.33;;;;;;;;;;5050279;28;20021;-63
2021/09/02 02:46:06;;;;;;;33.45;24.20;;;;;;;;;;5050707;28;20120;-63
2021/09/02 02:48:32;;;;;;;29.45;22.92;;;;;;;;;;5051533;28;20029;-64
2021/09/02 02:50:58;;;;;;;29.58;22.73;;;;;;;;;;5051909;28;20036;-64
2021/09/02 02:53:24;;;;;;;28.35;22.35;;;;;;;;;;5050734;28;20036;-65
2021/09/02 02:55:50;;;;;;;36.33;23.27;;;;;;;;;;5050682;28;20069;-64
2021/09/02 02:58:16;;;;;;;31.60;22.95;;;;;;;;;;5051830;28;20047;-64
2021/09/02 03:00:42;;;;;;;30.90;22.90;;;;;;;;;;5050419;28;20033;-64
2021/09/02 03:03:08;;;;;;;28.88;22.40;;;;;;;;;;5050667;28;20039;-64
2021/09/02 03:05:34;;;;;;;34.63;22.60;;;;;;;;;;5050939;28;20473;-64
2021/09/02 03:08:00;;;;;;;35.42;24.48;;;;;;;;;;5069225;28;20060;-64
2021/09/02 03:10:26;;;;;;;31.70;22.50;;;;;;;;;;5070907;28;20082;-65
2021/09/02 03:12:52;;;;;;;30.92;22.30;;;;;;;;;;5071844;28;20024;-65
2021/09/02 03:15:18;;;;;;;33.60;22.33;;;;;;;;;;5071438;28;20025;-63
2021/09/02 03:17:44;;;;;;;35.08;24.08;;;;;;;;;;5071806;28;20119;-64
2021/09/02 03:20:10;;;;;;;32.38;22.45;;;;;;;;;;5071845;28;20384;-64
2021/09/02 03:22:36;;;;;;;31.05;23.30;;;;;;;;;;5070229;28;20028;-64
2021/09/02 03:25:03;;;;;;;35.72;23.95;;;;;;;;;;5069333;28;20543;-64
2021/09/02 03:27:29;;;;;;;32.88;23.17;;;;;;;;;;5070970;28;20029;-64
2021/09/02 03:29:55;;;;;;;33.22;24.58;;;;;;;;;;5071396;28;20494;-64
2021/09/02 03:32:21;;;;;;;31.33;22.95;;;;;;;;;;5071589;28;20024;-64
2021/09/02 03:34:47;;;;;;;34.75;24.95;;;;;;;;;;5070070;28;20032;-64
2021/09/02 03:37:13;;;;;;;32.65;23.35;;;;;;;;;;5071974;28;20025;-66
2021/09/02 03:39:39;;;;;;;33.72;23.98;;;;;;;;;;5070401;28;20115;-65
2021/09/02 03:42:05;;;;;;;30.88;22.92;;;;;;;;;;5071996;28;20055;-64
2021/09/02 03:44:31;;;;;;;31.67;22.65;;;;;;;;;;5072837;28;20074;-63
2021/09/02 03:46:57;;;;;;;33.53;22.83;;;;;;;;;;5073471;28;20024;-63
2021/09/02 03:49:23;;;;;;;32.15;22.55;;;;;;;;;;5073773;28;20043;-63
2021/09/02 03:51:49;;;;;;;33.58;23.00;;;;;;;;;;5073624;28;20028;-63
2021/09/02 03:54:15;;;;;;;34.95;23.77;;;;;;;;;;5069955;28;20044;-63
2021/09/02 03:56:41;;;;;;;33.63;23.08;;;;;;;;;;5073385;28;20112;-63
2021/09/02 03:59:07;;;;;;;32.63;24.05;;;;;;;;;;5074624;28;20032;-66
2021/09/02 04:01:33;;;;;;;38.05;24.70;;;;;;;;;;5073545;28;20198;-65
2021/09/02 04:03:59;;;;;;;32.47;22.98;;;;;;;;;;5074525;28;20017;-63
2021/09/02 04:06:25;;;;;;;34.13;23.85;;;;;;;;;;5073644;28;20388;-65
2021/09/02 04:08:51;;;;;;;31.92;22.88;;;;;;;;;;5073520;28;20488;-64
2021/09/02 04:11:17;;;;;;;38.85;25.17;;;;;;;;;;5073211;28;20127;-64
2021/09/02 04:13:43;;;;;;;32.78;23.60;;;;;;;;;;5073036;28;20177;-64
2021/09/02 04:16:09;;;;;;;34.88;23.98;;;;;;;;;;5074501;28;20020;-64
2021/09/02 04:18:35;;;;;;;41.47;25.15;;;;;;;;;;5073065;28;20036;-64
2021/09/02 04:21:04;;;;;;;32.78;24.67;;;;;;;;;;5074409;28;20021;-64
2021/09/02 04:23:30;;;;;;;35.17;24.90;;;;;;;;;;5074426;28;20031;-62
2021/09/02 04:25:56;;;;;;;38.80;25.42;;;;;;;;;;5073454;28;20055;-64
2021/09/02 04:28:22;;;;;;;33.40;24.00;;;;;;;;;;5068191;28;20033;-64
2021/09/02 04:30:48;;;;;;;35.33;24.58;;;;;;;;;;5054102;28;20025;-63
2021/09/02 04:33:14;;;;;;;39.70;25.92;;;;;;;;;;5052640;28;20074;-63
2021/09/02 04:35:40;;;;;;;34.90;25.23;;;;;;;;;;5053957;28;20481;-64
2021/09/02 04:38:06;;;;;;;32.72;23.92;;;;;;;;;;5052772;28;20036;-64
2021/09/02 04:40:32;;;;;;;32.00;23.77;;;;;;;;;;5056484;28;20459;-64
2021/09/02 04:42:58;;;;;;;32.05;25.52;;;;;;;;;;5073850;28;20028;-65
2021/09/02 04:45:24;;;;;;;33.33;24.65;;;;;;;;;;5073615;28;20024;-64
2021/09/02 04:47:50;;;;;;;34.30;24.73;;;;;;;;;;5072684;28;20472;-63
2021/09/02 04:50:16;;;;;;;30.88;23.45;;;;;;;;;;5072495;28;20025;-64
2021/09/02 04:52:43;;;;;;;35.50;24.48;;;;;;;;;;5073687;28;20032;-65
2021/09/02 04:55:10;;;;;;;33.20;24.23;;;;;;;;;;5071795;28;20025;-61
2021/09/02 04:57:36;;;;;;;37.05;25.70;;;;;;;;;;5071814;28;20035;-64
2021/09/02 05:00:03;;;;;;;30.60;23.75;;;;;;;;;;5069643;22;20048;-64
2021/09/02 05:02:29;;;;;;;30.63;23.17;;;;;;;;;;5053147;28;20111;-63
2021/09/02 05:04:55;;;;;;;33.72;24.40;;;;;;;;;;5035055;28;20419;-64
2021/09/02 05:07:21;;;;;;;31.63;23.35;;;;;;;;;;5053048;28;20051;-65
2021/09/02 05:09:47;;;;;;;34.20;23.58;;;;;;;;;;5049535;28;20012;-64
2021/09/02 05:12:13;;;;;;;35.53;23.67;;;;;;;;;;5034882;28;20501;-63
2021/09/02 05:14:40;;;;;;;37.70;26.02;;;;;;;;;;5033340;28;20033;-63
2021/09/02 05:17:06;;;;;;;34.40;26.52;;;;;;;;;;5026837;28;20026;-64
2021/09/02 05:19:32;;;;;;;38.88;26.58;;;;;;;;;;5033000;28;20018;-65
2021/09/02 05:21:58;;;;;;;35.20;24.70;;;;;;;;;;5015168;28;20199;-61
2021/09/02 05:24:24;;;;;;;31.17;24.27;;;;;;;;;;5032723;28;20032;-63
2021/09/02 05:26:50;;;;;;;31.58;23.73;;;;;;;;;;5051047;28;20032;-64
2021/09/02 05:29:16;;;;;;;33.20;25.65;;;;;;;;;;5034865;28;20043;-67
2021/09/02 05:31:42;;;;;;;33.33;25.67;;;;;;;;;;5043091;28;20053;-64
2021/09/02 05:34:08;;;;;;;44.90;25.67;;;;;;;;;;5014726;28;20026;-64
2021/09/02 05:36:34;;;;;;;33.78;24.60;;;;;;;;;;5014702;28;20026;-63
2021/09/02 05:39:00;;;;;;;36.20;26.52;;;;;;;;;;5016327;28;20392;-64
2021/09/02 05:41:26;;;;;;;36.58;24.88;;;;;;;;;;5037216;28;20436;-63
2021/09/02 05:43:52;;;;;;;33.97;24.85;;;;;;;;;;5049805;28;20025;-61
2021/09/02 05:46:18;;;;;;;37.55;24.85;;;;;;;;;;5052325;28;20033;-67
2021/09/02 05:48:44;;;;;;;33.40;24.98;;;;;;;;;;5034162;28;20120;-64
2021/09/02 05:51:10;;;;;;;37.42;26.88;;;;;;;;;;5052124;28;20175;-64
2021/09/02 05:53:36;;;;;;;33.38;24.58;;;;;;;;;;5051888;28;20032;-64
2021/09/02 05:56:02;;;;;;;36.33;26.48;;;;;;;;;;5052032;28;20036;-62
2021/09/02 05:58:28;;;;;;;35.30;26.88;;;;;;;;;;5032523;28;20021;-64
2021/09/02 06:00:54;;;;;;;33.33;24.77;;;;;;;;;;5051593;28;20377;-64
2021/09/02 06:03:20;;;;;;;31.75;24.27;;;;;;;;;;5052107;28;20025;-64
2021/09/02 06:05:46;;;;;;;34.67;25.77;;;;;;;;;;5051413;28;20028;-64
2021/09/02 06:08:12;;;;;;;35.47;26.20;;;;;;;;;;5052107;28;20147;-65
2021/09/02 06:10:38;;;;;;;36.60;27.48;;;;;;;;;;5051895;28;20499;-62
2021/09/02 06:13:04;;;;;;;34.90;26.48;;;;;;;;;;5033735;28;20079;-63
2021/09/02 06:15:30;;;;;;;29.75;22.60;;;;;;;;;;5050622;28;20029;-63
2021/09/02 06:17:56;;;;;;;32.08;25.60;;;;;;;;;;5014148;28;20456;-64
2021/09/02 06:20:24;;;;;;;32.92;25.05;;;;;;;;;;5031961;28;20101;-64
2021/09/02 06:22:50;;;;;;;33.38;24.75;;;;;;;;;;5014136;28;20040;-64
2021/09/02 06:25:16;;;;;;;32.03;24.42;;;;;;;;;;5040947;28;20458;-64
2021/09/02 06:27:42;;;;;;;32.88;24.33;;;;;;;;;;5051415;28;20025;-64
2021/09/02 06:30:08;;;;;;;40.47;25.38;;;;;;;;;;5032346;28;20028;-64
2021/09/02 06:32:34;;;;;;;42.30;27.10;;;;;;;;;;5013481;28;20021;-64
2021/09/02 06:35:00;;;;;;;38.38;26.33;;;;;;;;;;5013537;28;20068;-64
2021/09/02 06:37:26;;;;;;;33.17;23.50;;;;;;;;;;5031331;28;20057;-63
2021/09/02 06:39:52;;;;;;;37.75;26.05;;;;;;;;;;5013875;28;20034;-63
2021/09/02 06:42:18;;;;;;;36.72;23.85;;;;;;;;;;5031677;28;20465;-63
2021/09/02 06:44:44;;;;;;;34.60;22.70;;;;;;;;;;5030897;28;20124;-62
2021/09/02 06:47:10;;;;;;;36.80;25.60;;;;;;;;;;5050900;28;20041;-61
2021/09/02 06:49:36;;;;;;;33.35;22.85;;;;;;;;;;5033299;28;20183;-63
2021/09/02 06:52:02;;;;;;;37.30;25.15;;;;;;;;;;5051450;28;20033;-61
2021/09/02 06:54:28;;;;;;;41.25;25.27;;;;;;;;;;5051027;28;20028;-63
2021/09/02 06:56:54;;;;;;;39.38;24.92;;;;;;;;;;5032690;28;20477;-64
2021/09/02 06:59:20;;;;;;;33.45;23.52;;;;;;;;;;5032831;28;20032;-65
2021/09/02 07:01:47;;;;;;;39.03;24.15;;;;;;;;;;5038462;28;20029;-64
2021/09/02 07:04:13;;;;;;;44.00;25.20;;;;;;;;;;5031410;28;20017;-64
2021/09/02 07:06:39;;;;;;;42.33;26.13;;;;;;;;;;5014013;28;20025;-65
2021/09/02 07:09:05;;;;;;;38.95;26.05;;;;;;;;;;5033851;28;20191;-64
2021/09/02 07:11:31;;;;;;;36.70;24.92;;;;;;;;;;5050736;28;20025;-64
2021/09/02 07:13:57;;;;;;;38.30;25.67;;;;;;;;;;5051178;28;20095;-63
2021/09/02 07:16:24;;;;;;;35.15;26.08;;;;;;;;;;5051010;28;20392;-65
2021/09/02 07:18:50;;;;;;;34.47;24.85;;;;;;;;;;5053749;28;20459;-65
2021/09/02 07:21:16;;;;;;;36.58;24.17;;;;;;;;;;5037207;28;20052;-64
2021/09/02 07:23:42;;;;;;;39.67;25.85;;;;;;;;;;5055004;28;20021;-65
2021/09/02 07:26:08;;;;;;;31.63;25.40;;;;;;;;;;5054902;28;20038;-64
2021/09/02 07:28:34;;;;;;;32.60;24.90;;;;;;;;;;5037140;28;20447;-63
2021/09/02 07:31:00;;;;;;;41.00;26.50;;;;;;;;;;5054672;28;20132;-65
2021/09/02 07:33:26;;;;;;;34.85;24.83;;;;;;;;;;5054564;28;20025;-65
2021/09/02 07:35:52;;;;;;;31.90;23.98;;;;;;;;;;5030613;28;20055;-64
2021/09/02 07:38:18;;;;;;;34.67;25.40;;;;;;;;;;5024319;28;20029;-64
2021/09/02 07:40:44;;;;;;;33.92;24.10;;;;;;;;;;5016688;28;20466;-64
2021/09/02 07:43:10;;;;;;;36.25;25.05;;;;;;;;;;5016999;28;20037;-63
2021/09/02 07:45:36;;;;;;;36.97;26.00;;;;;;;;;;5016583;28;20026;-67
2021/09/02 07:48:02;;;;;;;34.97;25.52;;;;;;;;;;5035089;28;20041;-64
2021/09/02 07:50:28;;;;;;;35.47;25.27;;;;;;;;;;5034706;28;20056;-64
2021/09/02 07:52:54;;;;;;;35.10;24.20;;;;;;;;;;5016654;28;20033;-64
2021/09/02 07:55:20;;;;;;;36.15;23.65;;;;;;;;;;5016841;28;20041;-65
2021/09/02 07:57:49;;;;;;;36.53;25.17;;;;;;;;;;5017069;28;20036;-66
2021/09/02 08:00:17;;;;;;;34.78;24.40;;;;;;;;;;5034610;28;20068;-65
2021/09/02 08:02:43;;;;;;;38.23;24.00;;;;;;;;;;5050218;28;20063;-66
2021/09/02 08:05:09;;;;;;;35.15;24.80;;;;;;;;;;5051714;28;20032;-69
2021/09/02 08:07:49;;;;;;;34.58;25.20;;;;;;;;;;5051132;28;20036;-69
2021/09/02 08:10:15;;;;;;;35.85;25.52;;;;;;;;;;5029293;28;20029;-68
2021/09/02 08:12:41;;;;;;;34.30;24.63;;;;;;;;;;5034886;28;20029;-66
2021/09/02 08:15:08;;;;;;;32.95;23.40;;;;;;;;;;5045674;28;20032;-68
2021/09/02 08:17:34;;;;;;;35.42;25.33;;;;;;;;;;5051834;28;20040;-68
2021/09/02 08:20:00;;;;;;;33.97;24.17;;;;;;;;;;5053959;28;20412;-68
2021/09/02 08:22:26;;;;;;;42.17;25.15;;;;;;;;;;5035568;28;20021;-64
2021/09/02 08:24:52;;;;;;;39.17;26.83;;;;;;;;;;5053612;28;20021;-66
2021/09/02 08:27:20;;;;;;;41.33;25.00;;;;;;;;;;5035294;28;20400;-66
2021/09/02 08:29:46;;;;;;;34.45;24.95;;;;;;;;;;5052956;28;20655;-65
2021/09/02 08:32:12;;;;;;;37.08;23.55;;;;;;;;;;5051994;28;20029;-65
2021/09/02 08:34:38;;;;;;;36.53;25.45;;;;;;;;;;5053343;28;20091;-65
2021/09/02 08:37:04;;;;;;;31.92;23.75;;;;;;;;;;5032427;28;20385;-66
2021/09/02 08:39:31;;;;;;;34.13;23.45;;;;;;;;;;5053004;28;20126;-65
2021/09/02 08:41:57;;;;;;;31.83;24.98;;;;;;;;;;5034517;28;20020;-65
2021/09/02 08:44:24;;;;;;;32.85;23.45;;;;;;;;;;5035309;28;20021;-65
2021/09/02 08:46:50;;;;;;;32.17;24.00;;;;;;;;;;5052636;28;20028;-65
2021/09/02 08:49:21;;;;;;;30.90;24.23;;;;;;;;;;5053273;28;20033;-65
2021/09/02 08:51:48;;;;;;;32.55;23.50;;;;;;;;;;5033400;28;20112;-67
2021/09/02 08:54:14;;;;;;;33.75;23.02;;;;;;;;;;5053000;28;20037;-65
2021/09/02 08:56:40;;;;;;;34.15;24.45;;;;;;;;;;5051911;28;20025;-65
2021/09/02 08:59:06;;;;;;;34.53;24.60;;;;;;;;;;5051809;28;20036;-66
2021/09/02 09:01:32;;;;;;;33.38;23.67;;;;;;;;;;5052323;28;20025;-64
2021/09/02 09:03:58;;;;;;;33.10;24.45;;;;;;;;;;5050296;28;20024;-64
2021/09/02 09:06:26;;;;;;;32.67;24.20;;;;;;;;;;5052220;28;20036;-64
2021/09/02 09:08:53;;;;;;;33.17;24.38;;;;;;;;;;5032057;28;20131;-64
2021/09/02 09:11:20;;;;;;;33.65;24.77;;;;;;;;;;5052242;28;20148;-64
2021/09/02 09:13:47;;;;;;;30.35;24.33;;;;;;;;;;5052650;28;20025;-65
2021/09/02 09:16:13;;;;;;;31.70;24.73;;;;;;;;;;5052141;28;20083;-64
2021/09/02 09:18:43;;;;;;;37.42;25.17;;;;;;;;;;5033970;28;20021;-64
2021/09/02 09:21:14;;;;;;;34.15;25.55;;;;;;;;;;5052715;28;20025;-64
2021/09/02 09:24:01;;;;;;;35.35;25.38;;;;;;;;;;5050650;28;20040;-64
2021/09/02 09:26:27;;;;;;;27.92;23.50;;;;;;;;;;5051886;28;20029;-64
2021/09/02 09:28:56;;;;;;;31.77;23.67;;;;;;;;;;5050522;28;20381;-64
2021/09/02 09:31:26;;;;;;;32.70;24.38;;;;;;;;;;5050951;28;20029;-64
2021/09/02 09:33:53;;;;;;;30.65;24.80;;;;;;;;;;5052065;28;20029;-63
2021/09/02 09:36:25;;;;;;;32.83;24.35;;;;;;;;;;5052874;28;20028;-63
2021/09/02 09:39:03;;;;;;;29.85;23.95;;;;;;;;;;5048566;28;20071;-63
2021/09/02 09:41:33;;;;;;;33.97;25.10;;;;;;;;;;5033544;28;20120;-64
2021/09/02 09:44:17;;;;;;;29.50;23.60;;;;;;;;;;5052296;28;20023;-64
2021/09/02 09:46:43;;;;;;;33.08;25.05;;;;;;;;;;5034470;28;20083;-64
2021/09/02 09:49:09;;;;;;;32.50;24.50;;;;;;;;;;5033137;28;20033;-64
2021/09/02 09:51:35;;;;;;;30.70;23.85;;;;;;;;;;5052063;28;20086;-64
2021/09/02 09:54:02;;;;;;;31.08;24.35;;;;;;;;;;5045700;28;20033;-64
2021/09/02 09:56:28;;;;;;;31.27;24.02;;;;;;;;;;5045156;28;20057;-65
2021/09/02 09:58:55;;;;;;;30.73;24.75;;;;;;;;;;5032705;28;20504;-64
2021/09/02 10:01:22;;;;;;;38.20;25.05;;;;;;;;;;5052535;28;20396;-67
2021/09/02 10:03:51;;;;;;;35.65;26.35;;;;;;;;;;5050708;28;20025;-64
2021/09/02 10:06:18;;;;;;;31.80;24.73;;;;;;;;;;5050825;28;20028;-64
2021/09/02 10:08:44;;;;;;;27.00;23.73;;;;;;;;;;5027994;28;20033;-64
2021/09/02 10:11:12;;;;;;;33.83;24.55;;;;;;;;;;5043144;28;20396;-64
2021/09/02 10:13:38;;;;;;;29.70;25.30;;;;;;;;;;5041359;28;20033;-63
2021/09/02 10:16:05;;;;;;;32.50;24.77;;;;;;;;;;5041899;28;20021;-65
2021/09/02 10:18:31;;;;;;;37.70;25.25;;;;;;;;;;5041603;28;20035;-66
2021/09/02 10:21:02;;;;;;;32.80;23.27;;;;;;;;;;5037771;28;20060;-63
2021/09/02 10:23:28;;;;;;;28.55;22.98;;;;;;;;;;5039207;28;20496;-63
2021/09/02 10:25:54;;;;;;;30.05;24.38;;;;;;;;;;5019189;28;20025;-64
2021/09/02 10:28:32;;;;;;;27.70;23.98;;;;;;;;;;5039419;28;20029;-64
2021/09/02 10:31:22;;;;;;;30.00;24.10;;;;;;;;;;5035396;28;20035;-64
2021/09/02 10:33:49;;;;;;;34.53;25.55;;;;;;;;;;5038300;28;20029;-62
2021/09/02 10:36:15;;;;;;;31.88;25.80;;;;;;;;;;5030700;28;20029;-64
2021/09/02 10:38:42;;;;;;;32.17;25.30;;;;;;;;;;5047027;28;20025;-63
2021/09/02 10:41:09;;;;;;;32.45;25.67;;;;;;;;;;5048036;28;20091;-64
2021/09/02 10:43:45;;;;;;;31.70;24.55;;;;;;;;;;5048017;28;20071;-64
2021/09/02 10:46:24;;;;;;;29.00;24.63;;;;;;;;;;5048543;28;20108;-63
2021/09/02 10:48:50;;;;;;;31.20;23.45;;;;;;;;;;5029185;28;20033;-62
2021/09/02 10:51:35;;;;;;;29.52;24.63;;;;;;;;;;5048802;28;20039;-64
2021/09/02 10:54:02;;;;;;;32.50;25.60;;;;;;;;;;5054010;28;20062;-64
2021/09/02 10:56:31;;;;;;;32.83;24.17;;;;;;;;;;5053360;28;20032;-64
2021/09/02 10:58:57;;;;;;;30.45;24.52;;;;;;;;;;5052821;28;20020;-64
2021/09/02 11:01:23;;;;;;;33.72;25.90;;;;;;;;;;5056789;28;20033;-63
2021/09/02 11:03:56;;;;;;;35.28;25.45;;;;;;;;;;5036830;28;20094;-63
2021/09/02 11:06:22;;;;;;;28.20;23.42;;;;;;;;;;5055596;28;20472;-64
2021/09/02 11:08:48;;;;;;;30.25;23.98;;;;;;;;;;5050215;28;20039;-64
2021/09/02 11:11:18;;;;;;;29.83;23.63;;;;;;;;;;5054757;28;20024;-63
2021/09/02 11:13:45;;;;;;;28.38;24.10;;;;;;;;;;4702794;28;10000343;-64
2021/09/02 11:16:13;;;;;;;29.65;23.55;;;;;;;;;;5032440;28;20052;-64
2021/09/02 11:18:42;;;;;;;31.33;24.67;;;;;;;;;;5042009;28;20029;-65
2021/09/02 11:21:15;;;;;;;28.23;24.02;;;;;;;;;;5041092;28;20048;-66
2021/09/02 11:23:45;;;;;;;30.30;23.63;;;;;;;;;;5041984;28;20063;-63
2021/09/02 11:26:11;;;;;;;28.15;23.42;;;;;;;;;;5042128;28;20044;-64
2021/09/02 11:28:50;;;;;;;28.58;24.75;;;;;;;;;;5047503;28;20029;-63
2021/09/02 11:31:16;;;;;;;30.35;25.52;;;;;;;;;;5034848;28;20488;-63
2021/09/02 11:33:46;;;;;;;27.77;23.80;;;;;;;;;;5048327;28;20025;-62
2021/09/02 11:36:12;;;;;;;26.48;23.15;;;;;;;;;;5051698;28;20037;-62
2021/09/02 11:38:38;;;;;;;28.00;23.95;;;;;;;;;;5049953;28;20057;-63
2021/09/02 11:41:32;;;;;;;30.00;25.83;;;30.10;97.60;;;;;;5051919;28;20021;-63
2021/09/02 11:43:57;;;;;;;28.70;25.30;;;29.70;99.90;;;;;;4700590;28;9999773;-62
2021/09/02 11:46:23;;;;;;;28.27;24.52;;;;;;;;;;5051080;28;20033;-63
2021/09/02 11:48:53;;;;;;;27.30;23.10;;;26.60;99.90;;;;;;5049845;28;20267;-64
2021/09/02 11:51:32;;;;;;;26.50;23.60;;;;;;;;;;5033742;28;20036;-63
2021/09/02 11:54:04;;;;;;;27.48;24.58;;;;;;;;;;5050962;28;20174;-63
2021/09/02 11:56:31;;;;;;;27.95;23.38;;;;;;;;;;5050917;28;20040;-63
2021/09/02 11:58:57;;;;;;;27.42;24.60;;;;;;;;;;5031700;28;20037;-63
2021/09/02 12:01:23;;;;;;;25.85;23.05;;;29.20;99.90;;;;;;5051418;28;20021;-64
2021/09/02 12:03:50;;;;;;;27.42;23.88;;;29.80;99.90;;;;;;5047185;28;20052;-64
2021/09/02 12:06:27;;;;;;;26.58;23.77;;;30.90;99.90;;;;;;5048944;28;20036;-63
2021/09/02 12:08:56;;;;;;;29.30;26.17;;;30.70;99.90;;;;;;5048035;28;20083;-63
2021/09/02 12:11:23;;;;;;;28.15;24.20;;;;;;;;;;5050751;28;20060;-62
2021/09/02 12:13:49;;;;;;;28.63;25.60;;;30.80;99.90;;;;;;5049429;28;20548;-64
2021/09/02 12:16:16;;;;;;;27.17;24.30;;;;;;;;;;5032889;28;20125;-64
2021/09/02 12:18:46;;;;;;;26.88;24.08;;;;;;;;;;5047965;28;20113;-63
2021/09/02 12:21:21;;;;;;;28.25;23.80;;;31.80;99.90;;;;;;5051045;28;20021;-63
2021/09/02 12:23:54;;;;;;;26.30;23.55;;;31.30;99.90;;;;;;5050503;28;20032;-63
2021/09/02 12:26:22;;;;;;;25.70;22.85;;;32.10;99.50;;;;;;5033259;28;20033;-63
2021/09/02 12:28:50;;;;;;;25.25;22.63;;;33.00;99.10;;;;;;5049063;28;20033;-63
2021/09/02 12:31:31;;;;;;;26.40;23.60;;;31.60;99.50;;;;;;5031589;28;20024;-63
2021/09/02 12:34:18;;;;;;;24.60;21.90;;;32.40;98.60;;;;;;5033099;28;20024;-64
2021/09/02 12:36:45;;;;;;;26.00;23.20;;;32.90;98.40;;;;;;5031939;28;20024;-64
2021/09/02 12:39:15;;;;;;;25.60;22.70;;;32.50;97.60;;;;;;5045326;28;20804;-64
2021/09/02 12:41:46;;;;;;;26.27;23.23;;;32.40;98.10;;;;;;5050005;28;20044;-63
2021/09/02 12:44:20;;;;;;;23.92;21.35;;;31.60;97.90;;;;;;5050455;28;20025;-62
2021/09/02 12:46:50;;;;;;;26.30;23.50;;;32.10;98.60;;;;;;5050629;28;20395;-63
2021/09/02 12:49:16;;;;;;;24.80;22.10;;;32.70;97.60;;;;;;5049251;28;20033;-63
2021/09/02 12:51:42;;;;;;;25.55;22.85;;;;;;;;;;5032239;28;20033;-64
2021/09/02 12:54:08;;;;;;;25.75;22.50;;;;;;;;;;5033446;28;20484;-62
2021/09/02 12:56:36;;;;;;;25.95;22.15;;;;;;;;;;5026782;28;20025;-64
2021/09/02 12:59:02;;;;;;;28.65;24.15;;;;;;;;;;5046630;28;20135;-64
2021/09/02 13:01:28;;;;;;;25.27;22.25;;;;;;;;;;5026453;28;20657;-64
2021/09/02 13:03:54;;;;;;;26.40;22.45;;;;;;;;;;5049129;28;20028;-64
2021/09/02 13:06:20;;;;;;;24.30;21.23;;;;;;;;;;5032536;28;20036;-64
2021/09/02 13:08:46;;;;;;;26.00;22.20;;;;;;;;;;5045593;28;20037;-64
2021/09/02 13:11:12;;;;;;;26.63;22.95;;;;;;;;;;5029504;28;20123;-64
2021/09/02 13:13:38;;;;;;;25.48;22.83;;;;;;;;;;5041994;28;20033;-64
2021/09/02 13:16:04;;;;;;;25.98;22.95;;;31.30;98.70;;;;;;5038111;28;20477;-64
2021/09/02 13:18:29;;;;;;;24.95;22.20;;;30.60;98.60;;;;;;5026377;28;20059;-65
2021/09/02 13:20:56;;;;;;;24.38;21.88;;;;;;;;;;5049348;28;20028;-64
2021/09/02 13:23:22;;;;;;;23.92;21.40;;;;;;;;;;5049087;28;20044;-64
2021/09/02 13:25:50;;;;;;;26.20;22.67;;;;;;;;;;5031198;28;20111;-64
2021/09/02 13:28:16;;;;;;;24.20;21.60;;;;;;;;;;5049352;28;20422;-64
2021/09/02 13:30:43;;;;;;;26.13;21.73;;;;;;;;;;5050091;28;20098;-64
2021/09/02 13:33:10;;;;;;;23.63;21.13;;;30.70;99.10;;;;;;5050816;28;20056;-64
2021/09/02 13:35:36;;;;;;;23.83;21.23;;;;;;;;;;5029377;28;20064;-64
2021/09/02 13:38:02;;;;;;;23.38;20.88;;;;;;;;;;5032362;28;20053;-64
2021/09/02 13:40:28;;;;;;;24.13;21.38;;;;;;;;;;5036402;28;20500;-64
2021/09/02 13:42:56;;;;;;;23.75;21.20;;;;;;;;;;5027820;28;20129;-63
2021/09/02 13:45:22;;;;;;;24.17;21.67;;;;;;;;;;5040100;28;20059;-63
2021/09/02 13:47:47;;;;;;;23.60;21.10;;;;;;;;;;5027968;28;20593;-63
2021/09/02 13:50:14;;;;;;;24.27;21.77;;;;;;;;;;5031797;28;20021;-63
2021/09/02 13:52:40;;;;;;;24.77;21.65;;;;;;;;;;5052292;28;20032;-65
2021/09/02 13:55:08;;;;;;;24.20;21.70;;;30.30;99.50;;;;;;5046609;28;20104;-64
2021/09/02 13:57:34;;;;;;;25.42;22.02;;;32.90;97.10;;;;;;5051483;28;20521;-64
2021/09/02 13:59:59;;;;;;;23.75;20.70;;;32.60;96.10;;;;;;5052423;28;20045;-63
2021/09/02 14:02:25;;;;;;;26.80;21.23;;;33.70;97.40;;;;;;5034219;28;20025;-64
2021/09/02 14:04:51;;;;;;;23.13;20.73;;;35.30;95.80;;;;;;5046803;28;20082;-63